sensor_id;sensor_type;location;lat;lon;timestamp;temperature;humidity
47757;SHT35;22147;52.388;13.390;2023-05-07T00:00:21;9.08;87.73
47757;SHT35;22147;52.388;13.390;2023-05-07T00:02:50;9.15;87.89
47757;SHT35;22147;52.388;13.390;2023-05-07T00:05:19;9.05;88.04
47757;SHT35;22147;52.388;13.390;2023-05-07T00:07:47;9.20;87.95
47757;SHT35;22147;52.388;13.390;2023-05-07T00:10:15;9.08;87.70
47757;SHT35;22147;52.388;13.390;2023-05-07T00:12:43;9.02;88.28
47757;SHT35;22147;52.388;13.390;2023-05-07T00:15:12;9.11;87.84
47757;SHT35;22147;52.388;13.390;2023-05-07T00:17:40;9.23;87.66
47757;SHT35;22147;52.388;13.390;2023-05-07T00:20:09;9.03;87.89
47757;SHT35;22147;52.388;13.390;2023-05-07T00:22:37;8.96;88.43
47757;SHT35;22147;52.388;13.390;2023-05-07T00:25:06;9.23;87.62
47757;SHT35;22147;52.388;13.390;2023-05-07T00:27:34;9.23;87.59
47757;SHT35;22147;52.388;13.390;2023-05-07T00:30:03;9.24;87.62
47757;SHT35;22147;52.388;13.390;2023-05-07T00:32:31;9.16;87.21
47757;SHT35;22147;52.388;13.390;2023-05-07T00:34:59;9.01;87.81
47757;SHT35;22147;52.388;13.390;2023-05-07T00:37:28;9.19;87.94
47757;SHT35;22147;52.388;13.390;2023-05-07T00:39:59;9.22;87.41
47757;SHT35;22147;52.388;13.390;2023-05-07T00:42:30;9.11;87.55
47757;SHT35;22147;52.388;13.390;2023-05-07T00:45:02;9.02;88.07
47757;SHT35;22147;52.388;13.390;2023-05-07T00:47:32;8.96;88.20
47757;SHT35;22147;52.388;13.390;2023-05-07T00:50:01;9.11;87.54
47757;SHT35;22147;52.388;13.390;2023-05-07T00:52:29;9.24;86.43
47757;SHT35;22147;52.388;13.390;2023-05-07T00:55:05;9.23;86.58
47757;SHT35;22147;52.388;13.390;2023-05-07T00:57:39;9.37;85.94
47757;SHT35;22147;52.388;13.390;2023-05-07T01:00:11;9.13;86.58
47757;SHT35;22147;52.388;13.390;2023-05-07T01:02:43;9.24;86.53
47757;SHT35;22147;52.388;13.390;2023-05-07T01:05:19;9.06;86.82
47757;SHT35;22147;52.388;13.390;2023-05-07T01:07:54;9.18;86.69
47757;SHT35;22147;52.388;13.390;2023-05-07T01:10:25;9.09;86.06
47757;SHT35;22147;52.388;13.390;2023-05-07T01:12:58;9.15;86.07
47757;SHT35;22147;52.388;13.390;2023-05-07T01:15:29;9.08;86.32
47757;SHT35;22147;52.388;13.390;2023-05-07T01:17:59;9.08;86.22
47757;SHT35;22147;52.388;13.390;2023-05-07T01:20:30;9.01;86.28
47757;SHT35;22147;52.388;13.390;2023-05-07T01:23:00;8.98;86.87
47757;SHT35;22147;52.388;13.390;2023-05-07T01:25:30;9.03;86.45
47757;SHT35;22147;52.388;13.390;2023-05-07T01:27:58;8.99;86.88
47757;SHT35;22147;52.388;13.390;2023-05-07T01:30:34;8.96;87.07
47757;SHT35;22147;52.388;13.390;2023-05-07T01:33:13;8.91;87.40
47757;SHT35;22147;52.388;13.390;2023-05-07T01:35:51;8.98;87.31
47757;SHT35;22147;52.388;13.390;2023-05-07T01:38:24;8.98;87.04
47757;SHT35;22147;52.388;13.390;2023-05-07T01:40:55;9.08;87.23
47757;SHT35;22147;52.388;13.390;2023-05-07T01:43:26;9.03;86.75
47757;SHT35;22147;52.388;13.390;2023-05-07T01:45:58;9.27;86.34
47757;SHT35;22147;52.388;13.390;2023-05-07T01:48:28;9.12;85.89
47757;SHT35;22147;52.388;13.390;2023-05-07T01:50:57;9.06;86.27
47757;SHT35;22147;52.388;13.390;2023-05-07T01:53:28;9.03;86.54
47757;SHT35;22147;52.388;13.390;2023-05-07T01:55:58;8.92;86.91
47757;SHT35;22147;52.388;13.390;2023-05-07T01:58:28;8.88;87.26
47757;SHT35;22147;52.388;13.390;2023-05-07T02:00:58;8.88;87.23
47757;SHT35;22147;52.388;13.390;2023-05-07T02:03:28;8.84;87.37
47757;SHT35;22147;52.388;13.390;2023-05-07T02:05:58;8.95;86.85
47757;SHT35;22147;52.388;13.390;2023-05-07T02:08:28;8.93;87.02
47757;SHT35;22147;52.388;13.390;2023-05-07T02:10:58;8.96;86.52
47757;SHT35;22147;52.388;13.390;2023-05-07T02:13:33;9.18;85.35
47757;SHT35;22147;52.388;13.390;2023-05-07T02:16:03;9.20;84.60
47757;SHT35;22147;52.388;13.390;2023-05-07T02:18:33;9.03;85.23
47757;SHT35;22147;52.388;13.390;2023-05-07T02:21:00;8.93;86.11
47757;SHT35;22147;52.388;13.390;2023-05-07T02:23:30;8.86;86.39
47757;SHT35;22147;52.388;13.390;2023-05-07T02:26:00;8.86;86.86
47757;SHT35;22147;52.388;13.390;2023-05-07T02:28:30;9.05;86.79
47757;SHT35;22147;52.388;13.390;2023-05-07T02:31:06;9.02;86.02
47757;SHT35;22147;52.388;13.390;2023-05-07T02:33:33;8.88;86.81
47757;SHT35;22147;52.388;13.390;2023-05-07T02:36:11;9.01;86.54
47757;SHT35;22147;52.388;13.390;2023-05-07T02:38:41;9.06;85.50
47757;SHT35;22147;52.388;13.390;2023-05-07T02:41:09;9.11;85.36
47757;SHT35;22147;52.388;13.390;2023-05-07T02:43:37;8.98;86.04
47757;SHT35;22147;52.388;13.390;2023-05-07T02:46:08;8.85;86.73
47757;SHT35;22147;52.388;13.390;2023-05-07T02:48:37;8.84;87.07
47757;SHT35;22147;52.388;13.390;2023-05-07T02:51:06;8.88;86.30
47757;SHT35;22147;52.388;13.390;2023-05-07T02:53:34;9.12;85.78
47757;SHT35;22147;52.388;13.390;2023-05-07T02:56:03;9.03;85.72
47757;SHT35;22147;52.388;13.390;2023-05-07T02:58:31;9.09;85.29
47757;SHT35;22147;52.388;13.390;2023-05-07T03:01:00;8.98;85.86
47757;SHT35;22147;52.388;13.390;2023-05-07T03:03:28;8.89;86.22
47757;SHT35;22147;52.388;13.390;2023-05-07T03:05:56;9.01;85.91
47757;SHT35;22147;52.388;13.390;2023-05-07T03:08:25;9.19;84.83
47757;SHT35;22147;52.388;13.390;2023-05-07T03:10:53;9.09;85.28
47757;SHT35;22147;52.388;13.390;2023-05-07T03:13:22;8.96;85.23
47757;SHT35;22147;52.388;13.390;2023-05-07T03:15:50;9.15;85.04
47757;SHT35;22147;52.388;13.390;2023-05-07T03:18:18;9.11;85.21
47757;SHT35;22147;52.388;13.390;2023-05-07T03:20:48;9.03;85.35
47757;SHT35;22147;52.388;13.390;2023-05-07T03:23:15;9.11;85.66
47757;SHT35;22147;52.388;13.390;2023-05-07T03:25:44;9.24;85.11
47757;SHT35;22147;52.388;13.390;2023-05-07T03:28:12;9.13;84.58
47757;SHT35;22147;52.388;13.390;2023-05-07T03:30:41;9.09;84.83
47757;SHT35;22147;52.388;13.390;2023-05-07T03:33:09;9.02;85.14
47757;SHT35;22147;52.388;13.390;2023-05-07T03:35:37;8.88;85.65
47757;SHT35;22147;52.388;13.390;2023-05-07T03:38:07;9.06;85.21
47757;SHT35;22147;52.388;13.390;2023-05-07T03:40:37;8.88;85.98
47757;SHT35;22147;52.388;13.390;2023-05-07T03:43:07;9.05;85.84
47757;SHT35;22147;52.388;13.390;2023-05-07T03:45:38;9.02;85.13
47757;SHT35;22147;52.388;13.390;2023-05-07T03:48:07;9.05;85.17
47757;SHT35;22147;52.388;13.390;2023-05-07T03:50:38;8.99;85.55
47757;SHT35;22147;52.388;13.390;2023-05-07T03:53:08;8.98;85.47
47757;SHT35;22147;52.388;13.390;2023-05-07T03:55:38;9.05;85.58
47757;SHT35;22147;52.388;13.390;2023-05-07T03:58:08;9.06;84.63
47757;SHT35;22147;52.388;13.390;2023-05-07T04:00:38;9.24;83.90
47757;SHT35;22147;52.388;13.390;2023-05-07T04:03:09;9.06;84.51
47757;SHT35;22147;52.388;13.390;2023-05-07T04:05:39;8.95;84.98
47757;SHT35;22147;52.388;13.390;2023-05-07T04:08:09;9.09;84.78
47757;SHT35;22147;52.388;13.390;2023-05-07T04:10:39;9.27;83.29
47757;SHT35;22147;52.388;13.390;2023-05-07T04:13:09;9.26;83.81
47757;SHT35;22147;52.388;13.390;2023-05-07T04:15:40;9.11;83.73
47757;SHT35;22147;52.388;13.390;2023-05-07T04:18:10;9.08;84.74
47757;SHT35;22147;52.388;13.390;2023-05-07T04:20:40;9.09;84.32
47757;SHT35;22147;52.388;13.390;2023-05-07T04:23:10;9.27;83.52
47757;SHT35;22147;52.388;13.390;2023-05-07T04:25:40;9.19;83.87
47757;SHT35;22147;52.388;13.390;2023-05-07T04:28:10;9.06;84.32
47757;SHT35;22147;52.388;13.390;2023-05-07T04:30:41;9.40;83.30
47757;SHT35;22147;52.388;13.390;2023-05-07T04:33:11;9.15;83.32
47757;SHT35;22147;52.388;13.390;2023-05-07T04:35:41;9.02;84.50
47757;SHT35;22147;52.388;13.390;2023-05-07T04:38:11;9.23;83.43
47757;SHT35;22147;52.388;13.390;2023-05-07T04:40:41;8.99;84.37
47757;SHT35;22147;52.388;13.390;2023-05-07T04:43:11;9.22;83.42
47757;SHT35;22147;52.388;13.390;2023-05-07T04:45:41;9.23;83.45
47757;SHT35;22147;52.388;13.390;2023-05-07T04:48:10;9.39;82.94
47757;SHT35;22147;52.388;13.390;2023-05-07T04:50:38;9.27;83.47
47757;SHT35;22147;52.388;13.390;2023-05-07T04:53:07;9.23;83.51
47757;SHT35;22147;52.388;13.390;2023-05-07T04:55:35;9.19;83.69
47757;SHT35;22147;52.388;13.390;2023-05-07T04:58:03;9.05;84.26
47757;SHT35;22147;52.388;13.390;2023-05-07T05:00:32;9.20;83.64
47757;SHT35;22147;52.388;13.390;2023-05-07T05:03:00;9.37;82.74
47757;SHT35;22147;52.388;13.390;2023-05-07T05:05:29;9.46;82.37
47757;SHT35;22147;52.388;13.390;2023-05-07T05:07:57;9.47;82.51
47757;SHT35;22147;52.388;13.390;2023-05-07T05:10:26;9.32;83.34
47757;SHT35;22147;52.388;13.390;2023-05-07T05:12:54;9.33;83.15
47757;SHT35;22147;52.388;13.390;2023-05-07T05:15:23;9.26;83.17
47757;SHT35;22147;52.388;13.390;2023-05-07T05:17:51;9.43;82.12
47757;SHT35;22147;52.388;13.390;2023-05-07T05:20:19;9.24;82.68
47757;SHT35;22147;52.388;13.390;2023-05-07T05:22:48;9.34;82.60
47757;SHT35;22147;52.388;13.390;2023-05-07T05:25:16;9.47;81.87
47757;SHT35;22147;52.388;13.390;2023-05-07T05:27:44;9.40;81.71
47757;SHT35;22147;52.388;13.390;2023-05-07T05:30:13;9.55;80.81
47757;SHT35;22147;52.388;13.390;2023-05-07T05:32:41;9.48;81.06
47757;SHT35;22147;52.388;13.390;2023-05-07T05:35:10;9.48;81.47
47757;SHT35;22147;52.388;13.390;2023-05-07T05:37:38;9.57;81.04
47757;SHT35;22147;52.388;13.390;2023-05-07T05:40:07;9.77;80.53
47757;SHT35;22147;52.388;13.390;2023-05-07T05:42:35;9.57;80.86
47757;SHT35;22147;52.388;13.390;2023-05-07T05:45:04;9.54;81.12
47757;SHT35;22147;52.388;13.390;2023-05-07T05:47:32;9.78;79.93
47757;SHT35;22147;52.388;13.390;2023-05-07T05:50:00;9.64;80.79
47757;SHT35;22147;52.388;13.390;2023-05-07T05:52:29;10.03;79.21
47757;SHT35;22147;52.388;13.390;2023-05-07T05:54:57;9.91;79.61
47757;SHT35;22147;52.388;13.390;2023-05-07T05:57:26;10.13;79.05
47757;SHT35;22147;52.388;13.390;2023-05-07T05:59:57;10.06;79.00
47757;SHT35;22147;52.388;13.390;2023-05-07T06:02:25;9.94;79.92
47757;SHT35;22147;52.388;13.390;2023-05-07T06:04:54;9.91;80.00
47757;SHT35;22147;52.388;13.390;2023-05-07T06:07:22;9.97;80.43
47757;SHT35;22147;52.388;13.390;2023-05-07T06:09:51;10.11;81.18
47757;SHT35;22147;52.388;13.390;2023-05-07T06:12:20;10.56;78.81
47757;SHT35;22147;52.388;13.390;2023-05-07T06:14:48;10.92;76.97
47757;SHT35;22147;52.388;13.390;2023-05-07T06:17:16;10.78;76.98
47757;SHT35;22147;52.388;13.390;2023-05-07T06:19:50;10.71;77.72
47757;SHT35;22147;52.388;13.390;2023-05-07T06:22:20;10.83;75.90
47757;SHT35;22147;52.388;13.390;2023-05-07T06:24:50;10.77;76.19
47757;SHT35;22147;52.388;13.390;2023-05-07T06:27:20;10.63;76.73
47757;SHT35;22147;52.388;13.390;2023-05-07T06:29:50;10.42;77.15
47757;SHT35;22147;52.388;13.390;2023-05-07T06:32:20;10.64;76.69
47757;SHT35;22147;52.388;13.390;2023-05-07T06:34:50;10.84;75.99
47757;SHT35;22147;52.388;13.390;2023-05-07T06:37:20;10.61;77.47
47757;SHT35;22147;52.388;13.390;2023-05-07T06:39:50;10.59;76.86
47757;SHT35;22147;52.388;13.390;2023-05-07T06:42:20;10.64;76.77
47757;SHT35;22147;52.388;13.390;2023-05-07T06:44:51;10.57;76.78
47757;SHT35;22147;52.388;13.390;2023-05-07T06:47:21;10.57;77.35
47757;SHT35;22147;52.388;13.390;2023-05-07T06:49:51;10.84;76.56
47757;SHT35;22147;52.388;13.390;2023-05-07T06:52:21;10.80;76.46
47757;SHT35;22147;52.388;13.390;2023-05-07T06:54:51;10.90;76.04
47757;SHT35;22147;52.388;13.390;2023-05-07T06:57:21;11.02;76.16
47757;SHT35;22147;52.388;13.390;2023-05-07T06:59:51;10.99;75.84
47757;SHT35;22147;52.388;13.390;2023-05-07T07:02:21;10.83;76.48
47757;SHT35;22147;52.388;13.390;2023-05-07T07:04:51;10.84;77.12
47757;SHT35;22147;52.388;13.390;2023-05-07T07:07:21;10.76;78.14
47757;SHT35;22147;52.388;13.390;2023-05-07T07:09:52;10.71;78.03
47757;SHT35;22147;52.388;13.390;2023-05-07T07:12:22;10.78;77.82
47757;SHT35;22147;52.388;13.390;2023-05-07T07:14:54;11.07;75.18
47757;SHT35;22147;52.388;13.390;2023-05-07T07:17:24;11.11;75.70
47757;SHT35;22147;52.388;13.390;2023-05-07T07:19:54;11.60;75.84
47757;SHT35;22147;52.388;13.390;2023-05-07T07:22:24;11.98;72.68
47757;SHT35;22147;52.388;13.390;2023-05-07T07:24:54;11.97;72.58
47757;SHT35;22147;52.388;13.390;2023-05-07T07:27:24;11.77;74.29
47757;SHT35;22147;52.388;13.390;2023-05-07T07:29:54;12.00;72.82
47757;SHT35;22147;52.388;13.390;2023-05-07T07:32:24;12.10;73.35
47757;SHT35;22147;52.388;13.390;2023-05-07T07:34:55;12.42;71.89
47757;SHT35;22147;52.388;13.390;2023-05-07T07:37:25;12.66;73.42
47757;SHT35;22147;52.388;13.390;2023-05-07T07:39:55;13.17;70.19
47757;SHT35;22147;52.388;13.390;2023-05-07T07:42:25;13.27;70.46
47757;SHT35;22147;52.388;13.390;2023-05-07T07:44:55;13.55;70.26
47757;SHT35;22147;52.388;13.390;2023-05-07T07:47:26;14.03;64.83
47757;SHT35;22147;52.388;13.390;2023-05-07T07:49:56;13.81;66.41
47757;SHT35;22147;52.388;13.390;2023-05-07T07:52:27;13.72;66.66
47757;SHT35;22147;52.388;13.390;2023-05-07T07:54:57;14.26;64.87
47757;SHT35;22147;52.388;13.390;2023-05-07T07:57:27;14.05;64.98
47757;SHT35;22147;52.388;13.390;2023-05-07T07:59:57;14.03;65.60
47757;SHT35;22147;52.388;13.390;2023-05-07T08:02:27;14.16;65.48
47757;SHT35;22147;52.388;13.390;2023-05-07T08:04:57;13.96;65.80
47757;SHT35;22147;52.388;13.390;2023-05-07T08:07:27;13.82;65.21
47757;SHT35;22147;52.388;13.390;2023-05-07T08:09:54;13.61;66.92
47757;SHT35;22147;52.388;13.390;2023-05-07T08:12:24;14.06;65.94
47757;SHT35;22147;52.388;13.390;2023-05-07T08:14:54;14.69;64.86
47757;SHT35;22147;52.388;13.390;2023-05-07T08:17:21;15.16;64.25
47757;SHT35;22147;52.388;13.390;2023-05-07T08:19:51;15.15;62.56
47757;SHT35;22147;52.388;13.390;2023-05-07T08:22:21;15.13;62.47
47757;SHT35;22147;52.388;13.390;2023-05-07T08:24:51;15.15;62.49
47757;SHT35;22147;52.388;13.390;2023-05-07T08:27:22;15.07;61.55
47757;SHT35;22147;52.388;13.390;2023-05-07T08:29:51;14.60;63.69
47757;SHT35;22147;52.388;13.390;2023-05-07T08:32:19;14.20;65.03
47757;SHT35;22147;52.388;13.390;2023-05-07T08:34:47;14.78;62.56
47757;SHT35;22147;52.388;13.390;2023-05-07T08:37:16;15.32;62.67
47757;SHT35;22147;52.388;13.390;2023-05-07T08:39:44;15.78;59.89
47757;SHT35;22147;52.388;13.390;2023-05-07T08:42:17;15.61;60.65
47757;SHT35;22147;52.388;13.390;2023-05-07T08:44:51;15.43;60.45
47757;SHT35;22147;52.388;13.390;2023-05-07T08:47:34;14.95;61.93
47757;SHT35;22147;52.388;13.390;2023-05-07T08:50:09;14.67;62.54
47757;SHT35;22147;52.388;13.390;2023-05-07T08:52:42;14.88;62.96
47757;SHT35;22147;52.388;13.390;2023-05-07T08:55:13;14.81;64.25
47757;SHT35;22147;52.388;13.390;2023-05-07T08:57:43;15.10;61.42
47757;SHT35;22147;52.388;13.390;2023-05-07T09:00:15;15.37;59.74
47757;SHT35;22147;52.388;13.390;2023-05-07T09:02:45;14.96;60.61
47757;SHT35;22147;52.388;13.390;2023-05-07T09:05:16;14.36;63.61
47757;SHT35;22147;52.388;13.390;2023-05-07T09:07:46;14.60;62.84
47757;SHT35;22147;52.388;13.390;2023-05-07T09:10:16;14.74;61.57
47757;SHT35;22147;52.388;13.390;2023-05-07T09:12:46;14.58;62.33
47757;SHT35;22147;52.388;13.390;2023-05-07T09:15:17;14.65;62.07
47757;SHT35;22147;52.388;13.390;2023-05-07T09:17:44;14.95;61.70
47757;SHT35;22147;52.388;13.390;2023-05-07T09:20:13;15.61;59.81
47757;SHT35;22147;52.388;13.390;2023-05-07T09:22:41;16.09;60.32
47757;SHT35;22147;52.388;13.390;2023-05-07T09:25:10;16.49;56.99
47757;SHT35;22147;52.388;13.390;2023-05-07T09:27:38;16.16;57.10
47757;SHT35;22147;52.388;13.390;2023-05-07T09:30:07;15.67;58.68
47757;SHT35;22147;52.388;13.390;2023-05-07T09:32:38;15.73;59.48
47757;SHT35;22147;52.388;13.390;2023-05-07T09:35:16;15.85;58.45
47757;SHT35;22147;52.388;13.390;2023-05-07T09:37:55;15.87;57.67
47757;SHT35;22147;52.388;13.390;2023-05-07T09:40:29;15.88;58.16
47757;SHT35;22147;52.388;13.390;2023-05-07T09:43:13;15.63;58.21
47757;SHT35;22147;52.388;13.390;2023-05-07T09:45:43;15.67;58.79
47757;SHT35;22147;52.388;13.390;2023-05-07T09:48:18;15.90;58.72
47757;SHT35;22147;52.388;13.390;2023-05-07T09:50:55;16.19;55.52
47757;SHT35;22147;52.388;13.390;2023-05-07T09:53:30;16.28;56.00
47757;SHT35;22147;52.388;13.390;2023-05-07T09:56:02;16.53;56.31
47757;SHT35;22147;52.388;13.390;2023-05-07T10:03:14;16.23;54.90
47757;SHT35;22147;52.388;13.390;2023-05-07T10:05:47;16.00;56.73
47757;SHT35;22147;52.388;13.390;2023-05-07T10:08:17;15.53;59.88
47757;SHT35;22147;52.388;13.390;2023-05-07T10:10:49;15.85;57.66
47757;SHT35;22147;52.388;13.390;2023-05-07T10:13:21;15.97;59.81
47757;SHT35;22147;52.388;13.390;2023-05-07T10:15:52;15.73;58.17
47757;SHT35;22147;52.388;13.390;2023-05-07T10:18:24;16.19;57.02
47757;SHT35;22147;52.388;13.390;2023-05-07T10:21:08;16.12;54.86
47757;SHT35;22147;52.388;13.390;2023-05-07T10:23:36;15.98;57.51
47757;SHT35;22147;52.388;13.390;2023-05-07T10:26:09;15.98;55.88
47757;SHT35;22147;52.388;13.390;2023-05-07T10:28:45;15.91;55.74
47757;SHT35;22147;52.388;13.390;2023-05-07T10:31:59;15.77;56.75
47757;SHT35;22147;52.388;13.390;2023-05-07T10:34:16;15.53;57.63
47757;SHT35;22147;52.388;13.390;2023-05-07T10:36:48;15.40;56.99
47757;SHT35;22147;52.388;13.390;2023-05-07T10:39:20;15.50;57.18
47757;SHT35;22147;52.388;13.390;2023-05-07T10:41:50;15.29;59.72
47757;SHT35;22147;52.388;13.390;2023-05-07T10:44:29;15.29;57.91
47757;SHT35;22147;52.388;13.390;2023-05-07T10:47:08;15.34;57.39
47757;SHT35;22147;52.388;13.390;2023-05-07T10:52:18;15.27;59.38
47757;SHT35;22147;52.388;13.390;2023-05-07T10:57:51;15.39;57.16
47757;SHT35;22147;52.388;13.390;2023-05-07T11:03:07;15.79;57.65
47757;SHT35;22147;52.388;13.390;2023-05-07T11:05:36;16.09;55.59
47757;SHT35;22147;52.388;13.390;2023-05-07T11:08:09;16.11;56.91
47757;SHT35;22147;52.388;13.390;2023-05-07T11:10:55;16.71;56.53
47757;SHT35;22147;52.388;13.390;2023-05-07T11:13:44;17.25;54.17
47757;SHT35;22147;52.388;13.390;2023-05-07T11:16:23;17.65;51.90
47757;SHT35;22147;52.388;13.390;2023-05-07T11:18:56;17.66;53.53
47757;SHT35;22147;52.388;13.390;2023-05-07T11:21:41;17.81;51.62
47757;SHT35;22147;52.388;13.390;2023-05-07T11:24:11;17.14;52.06
47757;SHT35;22147;52.388;13.390;2023-05-07T11:26:50;16.95;52.92
47757;SHT35;22147;52.388;13.390;2023-05-07T11:29:21;16.87;53.50
47757;SHT35;22147;52.388;13.390;2023-05-07T11:31:54;17.28;51.73
47757;SHT35;22147;52.388;13.390;2023-05-07T11:34:26;17.05;53.53
47757;SHT35;22147;52.388;13.390;2023-05-07T11:36:59;16.84;52.77
47757;SHT35;22147;52.388;13.390;2023-05-07T11:39:33;16.87;53.51
47757;SHT35;22147;52.388;13.390;2023-05-07T11:42:03;17.24;52.03
47757;SHT35;22147;52.388;13.390;2023-05-07T11:44:46;17.53;51.42
47757;SHT35;22147;52.388;13.390;2023-05-07T11:47:19;17.71;51.73
47757;SHT35;22147;52.388;13.390;2023-05-07T11:49:55;18.18;51.30
47757;SHT35;22147;52.388;13.390;2023-05-07T11:53:58;17.91;52.33
47757;SHT35;22147;52.388;13.390;2023-05-07T11:56:28;17.81;52.08
47757;SHT35;22147;52.388;13.390;2023-05-07T11:58:58;17.65;50.81
47757;SHT35;22147;52.388;13.390;2023-05-07T12:01:28;17.42;51.15
47757;SHT35;22147;52.388;13.390;2023-05-07T12:03:58;17.08;51.29
47757;SHT35;22147;52.388;13.390;2023-05-07T12:06:28;16.61;53.08
47757;SHT35;22147;52.388;13.390;2023-05-07T12:08:57;16.56;53.63
47757;SHT35;22147;52.388;13.390;2023-05-07T12:11:27;16.47;53.93
47757;SHT35;22147;52.388;13.390;2023-05-07T12:13:57;16.55;53.97
47757;SHT35;22147;52.388;13.390;2023-05-07T12:16:29;16.63;53.11
47757;SHT35;22147;52.388;13.390;2023-05-07T12:18:59;16.81;51.08
47757;SHT35;22147;52.388;13.390;2023-05-07T12:21:29;16.91;51.24
47757;SHT35;22147;52.388;13.390;2023-05-07T12:23:59;17.16;49.41
47757;SHT35;22147;52.388;13.390;2023-05-07T12:26:26;17.09;50.26
47757;SHT35;22147;52.388;13.390;2023-05-07T12:28:57;16.83;50.03
47757;SHT35;22147;52.388;13.390;2023-05-07T12:31:27;16.73;51.14
47757;SHT35;22147;52.388;13.390;2023-05-07T12:33:57;17.07;50.07
47757;SHT35;22147;52.388;13.390;2023-05-07T12:36:38;16.79;53.02
47757;SHT35;22147;52.388;13.390;2023-05-07T12:39:07;16.70;51.66
47757;SHT35;22147;52.388;13.390;2023-05-07T12:41:57;16.90;51.59
47757;SHT35;22147;52.388;13.390;2023-05-07T12:44:32;17.24;52.14
47757;SHT35;22147;52.388;13.390;2023-05-07T12:47:03;17.50;51.36
47757;SHT35;22147;52.388;13.390;2023-05-07T12:49:34;17.73;49.94
47757;SHT35;22147;52.388;13.390;2023-05-07T12:52:07;18.34;49.05
47757;SHT35;22147;52.388;13.390;2023-05-07T12:54:38;18.66;48.14
47757;SHT35;22147;52.388;13.390;2023-05-07T12:57:09;17.97;48.14
47757;SHT35;22147;52.388;13.390;2023-05-07T12:59:41;17.38;49.04
47757;SHT35;22147;52.388;13.390;2023-05-07T13:02:12;17.12;49.81
47757;SHT35;22147;52.388;13.390;2023-05-07T13:04:41;17.52;50.69
47757;SHT35;22147;52.388;13.390;2023-05-07T13:07:11;17.57;49.82
47757;SHT35;22147;52.388;13.390;2023-05-07T13:09:41;17.80;49.14
47757;SHT35;22147;52.388;13.390;2023-05-07T13:12:10;17.97;49.90
47757;SHT35;22147;52.388;13.390;2023-05-07T13:14:40;17.86;48.45
47757;SHT35;22147;52.388;13.390;2023-05-07T13:17:07;17.77;48.44
47757;SHT35;22147;52.388;13.390;2023-05-07T13:19:37;18.20;48.02
47757;SHT35;22147;52.388;13.390;2023-05-07T13:22:07;18.59;48.45
47757;SHT35;22147;52.388;13.390;2023-05-07T13:24:37;18.66;46.58
47757;SHT35;22147;52.388;13.390;2023-05-07T13:27:07;18.86;48.86
47757;SHT35;22147;52.388;13.390;2023-05-07T13:29:36;19.23;47.48
47757;SHT35;22147;52.388;13.390;2023-05-07T13:32:06;19.58;45.52
47757;SHT35;22147;52.388;13.390;2023-05-07T13:34:36;19.20;45.82
47757;SHT35;22147;52.388;13.390;2023-05-07T13:37:06;19.17;46.12
47757;SHT35;22147;52.388;13.390;2023-05-07T13:39:40;19.06;47.07
47757;SHT35;22147;52.388;13.390;2023-05-07T13:42:11;18.93;47.28
47757;SHT35;22147;52.388;13.390;2023-05-07T13:44:41;18.49;48.40
47757;SHT35;22147;52.388;13.390;2023-05-07T13:47:13;18.57;48.17
47757;SHT35;22147;52.388;13.390;2023-05-07T13:49:43;18.57;48.42
47757;SHT35;22147;52.388;13.390;2023-05-07T13:52:13;18.51;47.68
47757;SHT35;22147;52.388;13.390;2023-05-07T13:54:43;17.96;50.21
47757;SHT35;22147;52.388;13.390;2023-05-07T13:57:13;17.76;48.92
47757;SHT35;22147;52.388;13.390;2023-05-07T13:59:42;17.05;51.19
47757;SHT35;22147;52.388;13.390;2023-05-07T14:02:12;16.94;51.33
47757;SHT35;22147;52.388;13.390;2023-05-07T14:04:42;16.73;51.99
47757;SHT35;22147;52.388;13.390;2023-05-07T14:07:12;16.88;51.63
47757;SHT35;22147;52.388;13.390;2023-05-07T14:09:42;17.08;51.02
47757;SHT35;22147;52.388;13.390;2023-05-07T14:12:14;16.70;52.38
47757;SHT35;22147;52.388;13.390;2023-05-07T14:21:25;19.93;59.02
47757;SHT35;22147;52.388;13.390;2023-05-07T15:41:44;17.59;50.17
47757;SHT35;22147;52.388;13.390;2023-05-07T15:44:15;17.65;50.41
47757;SHT35;22147;52.388;13.390;2023-05-07T15:46:45;17.69;50.32
47757;SHT35;22147;52.388;13.390;2023-05-07T15:49:15;17.83;49.05
47757;SHT35;22147;52.388;13.390;2023-05-07T15:51:46;17.34;50.52
47757;SHT35;22147;52.388;13.390;2023-05-07T15:54:16;17.29;50.16
47757;SHT35;22147;52.388;13.390;2023-05-07T15:56:49;17.73;50.25
47757;SHT35;22147;52.388;13.390;2023-05-07T15:59:20;18.34;48.37
47757;SHT35;22147;52.388;13.390;2023-05-07T16:01:50;18.14;47.58
47757;SHT35;22147;52.388;13.390;2023-05-07T16:04:21;18.32;47.73
47757;SHT35;22147;52.388;13.390;2023-05-07T16:06:52;17.93;47.82
47757;SHT35;22147;52.388;13.390;2023-05-07T16:09:22;17.62;49.27
47757;SHT35;22147;52.388;13.390;2023-05-07T16:11:54;17.25;50.51
47757;SHT35;22147;52.388;13.390;2023-05-07T16:14:25;16.76;51.12
47757;SHT35;22147;52.388;13.390;2023-05-07T16:16:56;16.50;51.21
47757;SHT35;22147;52.388;13.390;2023-05-07T16:19:26;16.34;51.85
47757;SHT35;22147;52.388;13.390;2023-05-07T16:21:57;16.04;52.90
47757;SHT35;22147;52.388;13.390;2023-05-07T16:24:26;15.94;53.11
47757;SHT35;22147;52.388;13.390;2023-05-07T16:26:54;15.40;52.92
47757;SHT35;22147;52.388;13.390;2023-05-07T16:29:22;15.47;53.25
47757;SHT35;22147;52.388;13.390;2023-05-07T16:31:53;15.32;53.47
47757;SHT35;22147;52.388;13.390;2023-05-07T16:34:22;15.27;54.78
47757;SHT35;22147;52.388;13.390;2023-05-07T16:36:51;15.18;53.28
47757;SHT35;22147;52.388;13.390;2023-05-07T16:39:19;15.10;54.43
47757;SHT35;22147;52.388;13.390;2023-05-07T16:41:48;15.07;55.03
47757;SHT35;22147;52.388;13.390;2023-05-07T16:44:19;15.06;54.96
47757;SHT35;22147;52.388;13.390;2023-05-07T16:46:49;15.15;55.21
47757;SHT35;22147;52.388;13.390;2023-05-07T16:49:21;15.16;54.12
47757;SHT35;22147;52.388;13.390;2023-05-07T16:51:51;15.33;54.22
47757;SHT35;22147;52.388;13.390;2023-05-07T16:54:21;15.18;53.98
47757;SHT35;22147;52.388;13.390;2023-05-07T16:56:51;15.00;54.70
47757;SHT35;22147;52.388;13.390;2023-05-07T16:59:21;14.79;56.29
47757;SHT35;22147;52.388;13.390;2023-05-07T17:01:52;14.71;55.09
47757;SHT35;22147;52.388;13.390;2023-05-07T17:04:22;14.50;54.96
47757;SHT35;22147;52.388;13.390;2023-05-07T17:06:52;14.48;55.39
47757;SHT35;22147;52.388;13.390;2023-05-07T17:13:20;14.23;55.41
47757;SHT35;22147;52.388;13.390;2023-05-07T17:15:50;14.19;55.37
47757;SHT35;22147;52.388;13.390;2023-05-07T17:18:20;14.21;55.48
47757;SHT35;22147;52.388;13.390;2023-05-07T17:20:51;14.38;55.88
47757;SHT35;22147;52.388;13.390;2023-05-07T17:23:21;14.50;54.51
47757;SHT35;22147;52.388;13.390;2023-05-07T17:25:51;14.82;54.69